Gillette Campbell County Airport
KGCC : now visible

Airfield :











YOU CAN JOIN US ON...

 
LOGIN :

Register | Disclaimer

   EN    FR    IT 

 









Legend :    VFR   Marginal VFR   IFR   Intensive IFR   Very Intensive IFR
Visi :
Ceiling :
>= 8 km
>= 3000ft
5 to 8 km
1000 to 3000 ft
1500m to 5 km
500 to 1000 ft
800 to 1500m
200 to 500 ft
< 800m
< 200 ft
Symbols :   Thunderstorms  Fog  Heavy snow  Heavy precipitations  Wind > 20 kt






- Airport Elevation : 4365 ft


KGCC - Gillette Campbell County

CURRENT METAR :
  • 140553Z AUTO 23005KT 10SM CLR M01/M02 A3018 RMK AO2 SLP241 60000 T10111017 10033 21011 51010 $

EXPIRED METARs :
  • 140502Z AUTO 20004KT 10SM SCT025 SCT030 BKN047 01/01 A3016 RMK AO2 T00060006 $
  • 140453Z AUTO 20004KT 10SM FEW018 BKN026 OVC050 01/01 A3017 RMK AO2 SLP235 T00110011 $
  • 140426Z AUTO 00000KT 10SM SCT018 BKN024 OVC028 01/01 A3017 RMK AO2 T00110011 $
  • 140406Z AUTO 00000KT 10SM SCT022 BKN028 OVC037 02/01 A3016 RMK AO2 T00170011 $

TAF KGCC
Valid from the 14 at 06:00 until the 15 at 06:00 UTC


140540Z 1406/1506 29005KT P6SM SCT025 BKN050
TEMPO 1406/1410 BKN025
FM141200 24010KT P6SM BKN250



MET'MAP, your aeronautical weather chart ! - Copyright ORBIFLY December 2007 - Disclaimer

ORBIFLY MET'MAP TEAM :

Programming & Development : Alexandra Zaïnal
Concept & Development : Baudouin d'Aumeries
Co-Development & Prog : Marc-Olivier Méhu
Technical & hardware support : Manuel Goepfert

Contact : metmap@orbifly.com




SOURCES & CREDITS :

   NOAA       Earth
Advisory